Sant Lluis, Spain
Current Conditions -  °F | °C
As of 6:00 PM on Thursday 23 Oct 2014 (Local Time) from LEMH Reporting Station
Few Clouds Few Clouds  
Wind Chill: 70°   Ceiling: Unl
Heat Index: 70°   Visibility: 6mi
Dew Point: 46°   Wind: 13mph
Humidity: 43%   Direction: 320°NW
Pressure: 30"   Gusts: 25mph
Location:  39.85°N, 4.26°E
Report Text: LEMH 231600Z 32011G22KT 280V360 9999 FEW030 21/08 Q1016
Loading
Personal Weather Stations






























Interactive Weather Map
Tropical Storm Tracking
New forecast layout! Learn more

10-Day Weather Forecast

Advertisements
Track Severe Weather on mobile